sensor_id;sensor_type;location;lat;lon;timestamp;temperature;humidity
23629;DHT22;11991;57.150;-2.134;2024-03-02T00:00:40;4.20;99.90
23629;DHT22;11991;57.150;-2.134;2024-03-02T00:03:07;4.20;99.90
23629;DHT22;11991;57.150;-2.134;2024-03-02T00:05:36;4.20;99.90
23629;DHT22;11991;57.150;-2.134;2024-03-02T00:08:05;4.20;99.90
23629;DHT22;11991;57.150;-2.134;2024-03-02T00:10:37;4.20;99.90
23629;DHT22;11991;57.150;-2.134;2024-03-02T00:13:32;4.30;99.90
23629;DHT22;11991;57.150;-2.134;2024-03-02T00:16:00;4.40;99.90
23629;DHT22;11991;57.150;-2.134;2024-03-02T00:18:33;4.40;99.90
23629;DHT22;11991;57.150;-2.134;2024-03-02T00:21:01;4.50;99.90
23629;DHT22;11991;57.150;-2.134;2024-03-02T00:23:30;4.50;99.90
23629;DHT22;11991;57.150;-2.134;2024-03-02T00:25:58;4.60;99.90
23629;DHT22;11991;57.150;-2.134;2024-03-02T00:28:35;4.60;99.90
23629;DHT22;11991;57.150;-2.134;2024-03-02T00:31:12;4.60;99.90
23629;DHT22;11991;57.150;-2.134;2024-03-02T00:33:44;4.50;99.90
23629;DHT22;11991;57.150;-2.134;2024-03-02T00:36:17;4.50;99.90
23629;DHT22;11991;57.150;-2.134;2024-03-02T00:38:53;4.50;99.90
23629;DHT22;11991;57.150;-2.134;2024-03-02T00:41:30;4.50;99.90
23629;DHT22;11991;57.150;-2.134;2024-03-02T00:46:24;4.50;99.90
23629;DHT22;11991;57.150;-2.134;2024-03-02T00:48:54;4.50;99.90
23629;DHT22;11991;57.150;-2.134;2024-03-02T00:51:24;4.40;99.90
23629;DHT22;11991;57.150;-2.134;2024-03-02T00:53:53;4.40;99.90
23629;DHT22;11991;57.150;-2.134;2024-03-02T00:56:24;4.40;99.90
23629;DHT22;11991;57.150;-2.134;2024-03-02T00:58:51;4.40;99.90
23629;DHT22;11991;57.150;-2.134;2024-03-02T01:01:19;4.40;99.90
23629;DHT22;11991;57.150;-2.134;2024-03-02T01:03:47;4.40;99.90
23629;DHT22;11991;57.150;-2.134;2024-03-02T01:06:15;4.40;99.90
23629;DHT22;11991;57.150;-2.134;2024-03-02T01:08:43;4.30;99.90
23629;DHT22;11991;57.150;-2.134;2024-03-02T01:11:10;4.30;99.90
23629;DHT22;11991;57.150;-2.134;2024-03-02T01:13:38;4.30;99.90
23629;DHT22;11991;57.150;-2.134;2024-03-02T01:16:05;4.30;99.90
23629;DHT22;11991;57.150;-2.134;2024-03-02T01:18:32;4.30;99.90
23629;DHT22;11991;57.150;-2.134;2024-03-02T01:21:01;4.30;99.90
23629;DHT22;11991;57.150;-2.134;2024-03-02T01:23:28;4.30;99.90
23629;DHT22;11991;57.150;-2.134;2024-03-02T01:25:55;4.30;99.90
23629;DHT22;11991;57.150;-2.134;2024-03-02T01:28:23;4.30;99.90
23629;DHT22;11991;57.150;-2.134;2024-03-02T01:30:50;4.30;99.90
23629;DHT22;11991;57.150;-2.134;2024-03-02T01:33:18;4.30;99.90
23629;DHT22;11991;57.150;-2.134;2024-03-02T01:35:46;4.30;99.90
23629;DHT22;11991;57.150;-2.134;2024-03-02T01:38:14;4.30;99.90
23629;DHT22;11991;57.150;-2.134;2024-03-02T01:40:42;4.30;99.90
23629;DHT22;11991;57.150;-2.134;2024-03-02T01:43:11;4.40;99.90
23629;DHT22;11991;57.150;-2.134;2024-03-02T01:45:38;4.40;99.90
23629;DHT22;11991;57.150;-2.134;2024-03-02T01:48:06;4.40;99.90
23629;DHT22;11991;57.150;-2.134;2024-03-02T01:50:34;4.40;99.90
23629;DHT22;11991;57.150;-2.134;2024-03-02T01:53:02;4.40;99.90
23629;DHT22;11991;57.150;-2.134;2024-03-02T01:55:30;4.40;99.90
23629;DHT22;11991;57.150;-2.134;2024-03-02T01:57:58;4.30;99.90
23629;DHT22;11991;57.150;-2.134;2024-03-02T02:00:26;4.30;99.90
23629;DHT22;11991;57.150;-2.134;2024-03-02T02:02:54;4.30;99.90
23629;DHT22;11991;57.150;-2.134;2024-03-02T02:05:22;4.30;99.90
23629;DHT22;11991;57.150;-2.134;2024-03-02T02:07:50;4.20;99.90
23629;DHT22;11991;57.150;-2.134;2024-03-02T02:10:17;4.20;99.90
23629;DHT22;11991;57.150;-2.134;2024-03-02T02:12:44;4.20;99.90
23629;DHT22;11991;57.150;-2.134;2024-03-02T02:15:31;4.10;99.90
23629;DHT22;11991;57.150;-2.134;2024-03-02T02:17:59;4.10;99.90
23629;DHT22;11991;57.150;-2.134;2024-03-02T02:20:26;4.10;99.90
23629;DHT22;11991;57.150;-2.134;2024-03-02T02:23:04;4.10;99.90
23629;DHT22;11991;57.150;-2.134;2024-03-02T02:25:37;4.10;99.90
23629;DHT22;11991;57.150;-2.134;2024-03-02T02:28:04;4.10;99.90
23629;DHT22;11991;57.150;-2.134;2024-03-02T02:30:32;4.10;99.90
23629;DHT22;11991;57.150;-2.134;2024-03-02T02:33:00;4.10;99.90
23629;DHT22;11991;57.150;-2.134;2024-03-02T02:35:27;4.10;99.90
23629;DHT22;11991;57.150;-2.134;2024-03-02T02:37:55;4.10;99.90
23629;DHT22;11991;57.150;-2.134;2024-03-02T02:40:23;4.10;99.90
23629;DHT22;11991;57.150;-2.134;2024-03-02T02:42:51;4.00;99.90
23629;DHT22;11991;57.150;-2.134;2024-03-02T02:45:21;4.00;99.90
23629;DHT22;11991;57.150;-2.134;2024-03-02T02:47:48;4.00;99.90
23629;DHT22;11991;57.150;-2.134;2024-03-02T02:50:16;4.00;99.90
23629;DHT22;11991;57.150;-2.134;2024-03-02T02:52:43;4.00;99.90
23629;DHT22;11991;57.150;-2.134;2024-03-02T02:55:12;3.90;99.90
23629;DHT22;11991;57.150;-2.134;2024-03-02T02:57:41;3.90;99.90
23629;DHT22;11991;57.150;-2.134;2024-03-02T03:00:14;3.90;99.90
23629;DHT22;11991;57.150;-2.134;2024-03-02T03:02:46;3.90;99.90
23629;DHT22;11991;57.150;-2.134;2024-03-02T03:05:15;3.90;99.90
23629;DHT22;11991;57.150;-2.134;2024-03-02T03:07:43;3.90;99.90
23629;DHT22;11991;57.150;-2.134;2024-03-02T03:10:12;3.90;99.90
23629;DHT22;11991;57.150;-2.134;2024-03-02T03:12:41;3.90;99.90
23629;DHT22;11991;57.150;-2.134;2024-03-02T03:15:10;3.90;99.90
23629;DHT22;11991;57.150;-2.134;2024-03-02T03:17:38;3.90;99.90
23629;DHT22;11991;57.150;-2.134;2024-03-02T03:20:06;3.90;99.90
23629;DHT22;11991;57.150;-2.134;2024-03-02T03:22:40;3.90;99.90
23629;DHT22;11991;57.150;-2.134;2024-03-02T03:25:07;3.90;99.90
23629;DHT22;11991;57.150;-2.134;2024-03-02T03:27:37;3.90;99.90
23629;DHT22;11991;57.150;-2.134;2024-03-02T03:30:05;3.90;99.90
23629;DHT22;11991;57.150;-2.134;2024-03-02T03:32:33;4.00;99.90
23629;DHT22;11991;57.150;-2.134;2024-03-02T03:35:00;4.00;99.90
23629;DHT22;11991;57.150;-2.134;2024-03-02T03:37:28;4.00;99.90
23629;DHT22;11991;57.150;-2.134;2024-03-02T03:40:04;4.00;99.90
23629;DHT22;11991;57.150;-2.134;2024-03-02T03:42:38;4.00;99.90
23629;DHT22;11991;57.150;-2.134;2024-03-02T03:45:07;4.10;99.90
23629;DHT22;11991;57.150;-2.134;2024-03-02T03:47:34;4.10;99.90
23629;DHT22;11991;57.150;-2.134;2024-03-02T03:50:01;4.10;99.90
23629;DHT22;11991;57.150;-2.134;2024-03-02T03:52:33;4.10;99.90
23629;DHT22;11991;57.150;-2.134;2024-03-02T03:55:00;4.00;99.90
23629;DHT22;11991;57.150;-2.134;2024-03-02T03:57:27;4.00;99.90
23629;DHT22;11991;57.150;-2.134;2024-03-02T03:59:55;4.00;99.90
23629;DHT22;11991;57.150;-2.134;2024-03-02T04:02:22;4.00;99.90
23629;DHT22;11991;57.150;-2.134;2024-03-02T04:04:49;4.10;99.90
23629;DHT22;11991;57.150;-2.134;2024-03-02T04:07:16;4.00;99.90
23629;DHT22;11991;57.150;-2.134;2024-03-02T04:09:44;4.00;99.90
23629;DHT22;11991;57.150;-2.134;2024-03-02T04:12:11;4.10;99.90
23629;DHT22;11991;57.150;-2.134;2024-03-02T04:14:39;4.00;99.90
23629;DHT22;11991;57.150;-2.134;2024-03-02T04:17:09;4.10;99.90
23629;DHT22;11991;57.150;-2.134;2024-03-02T04:19:37;4.00;99.90
23629;DHT22;11991;57.150;-2.134;2024-03-02T04:22:04;4.00;99.90
23629;DHT22;11991;57.150;-2.134;2024-03-02T04:24:44;4.00;99.90
23629;DHT22;11991;57.150;-2.134;2024-03-02T04:27:11;4.00;99.90
23629;DHT22;11991;57.150;-2.134;2024-03-02T04:29:38;4.10;99.90
23629;DHT22;11991;57.150;-2.134;2024-03-02T04:32:06;4.00;99.90
23629;DHT22;11991;57.150;-2.134;2024-03-02T04:34:33;4.00;99.90
23629;DHT22;11991;57.150;-2.134;2024-03-02T04:37:01;4.00;99.90
23629;DHT22;11991;57.150;-2.134;2024-03-02T04:39:28;4.00;99.90
23629;DHT22;11991;57.150;-2.134;2024-03-02T04:41:55;4.00;99.90
23629;DHT22;11991;57.150;-2.134;2024-03-02T04:44:22;4.00;99.90
23629;DHT22;11991;57.150;-2.134;2024-03-02T04:46:50;4.00;99.90
23629;DHT22;11991;57.150;-2.134;2024-03-02T04:49:17;4.00;99.90
23629;DHT22;11991;57.150;-2.134;2024-03-02T04:51:44;3.90;99.90
23629;DHT22;11991;57.150;-2.134;2024-03-02T04:54:11;3.90;99.90
23629;DHT22;11991;57.150;-2.134;2024-03-02T04:56:41;3.90;99.90
23629;DHT22;11991;57.150;-2.134;2024-03-02T04:59:12;4.00;99.90
23629;DHT22;11991;57.150;-2.134;2024-03-02T05:01:39;3.90;99.90
23629;DHT22;11991;57.150;-2.134;2024-03-02T05:04:06;4.00;99.90
23629;DHT22;11991;57.150;-2.134;2024-03-02T05:06:33;4.00;99.90
23629;DHT22;11991;57.150;-2.134;2024-03-02T05:09:00;4.00;99.90
23629;DHT22;11991;57.150;-2.134;2024-03-02T05:11:28;4.00;99.90
23629;DHT22;11991;57.150;-2.134;2024-03-02T05:14:04;4.00;99.90
23629;DHT22;11991;57.150;-2.134;2024-03-02T05:16:35;4.00;99.90
23629;DHT22;11991;57.150;-2.134;2024-03-02T05:19:03;4.00;99.90
23629;DHT22;11991;57.150;-2.134;2024-03-02T05:21:34;4.10;99.90
23629;DHT22;11991;57.150;-2.134;2024-03-02T05:24:01;4.10;99.90
23629;DHT22;11991;57.150;-2.134;2024-03-02T05:26:29;4.10;99.90
23629;DHT22;11991;57.150;-2.134;2024-03-02T05:28:56;4.10;99.90
23629;DHT22;11991;57.150;-2.134;2024-03-02T05:31:23;4.10;99.90
23629;DHT22;11991;57.150;-2.134;2024-03-02T05:33:50;4.10;99.90
23629;DHT22;11991;57.150;-2.134;2024-03-02T05:36:24;4.20;99.90
23629;DHT22;11991;57.150;-2.134;2024-03-02T05:38:51;4.20;99.90
23629;DHT22;11991;57.150;-2.134;2024-03-02T05:41:18;4.20;99.90
23629;DHT22;11991;57.150;-2.134;2024-03-02T05:43:45;4.20;99.90
23629;DHT22;11991;57.150;-2.134;2024-03-02T05:46:12;4.20;99.90
23629;DHT22;11991;57.150;-2.134;2024-03-02T05:48:40;4.20;99.90
23629;DHT22;11991;57.150;-2.134;2024-03-02T05:51:07;4.20;99.90
23629;DHT22;11991;57.150;-2.134;2024-03-02T05:53:34;4.20;99.90
23629;DHT22;11991;57.150;-2.134;2024-03-02T05:56:01;4.20;99.90
23629;DHT22;11991;57.150;-2.134;2024-03-02T05:58:31;4.20;99.90
23629;DHT22;11991;57.150;-2.134;2024-03-02T06:01:17;4.20;99.90
23629;DHT22;11991;57.150;-2.134;2024-03-02T06:03:49;4.20;99.90
23629;DHT22;11991;57.150;-2.134;2024-03-02T06:06:16;4.20;99.90
23629;DHT22;11991;57.150;-2.134;2024-03-02T06:08:44;4.20;99.90
23629;DHT22;11991;57.150;-2.134;2024-03-02T06:11:11;4.20;99.90
23629;DHT22;11991;57.150;-2.134;2024-03-02T06:13:38;4.30;99.90
23629;DHT22;11991;57.150;-2.134;2024-03-02T06:16:05;4.30;99.90
23629;DHT22;11991;57.150;-2.134;2024-03-02T06:18:33;4.30;99.90
23629;DHT22;11991;57.150;-2.134;2024-03-02T06:21:00;4.30;99.90
23629;DHT22;11991;57.150;-2.134;2024-03-02T06:23:30;4.30;99.90
23629;DHT22;11991;57.150;-2.134;2024-03-02T06:25:57;4.30;99.90
23629;DHT22;11991;57.150;-2.134;2024-03-02T06:28:24;4.30;99.90
23629;DHT22;11991;57.150;-2.134;2024-03-02T06:30:51;4.30;99.90
23629;DHT22;11991;57.150;-2.134;2024-03-02T06:33:19;4.30;99.90
23629;DHT22;11991;57.150;-2.134;2024-03-02T06:35:46;4.20;99.90
23629;DHT22;11991;57.150;-2.134;2024-03-02T06:38:13;4.20;99.90
23629;DHT22;11991;57.150;-2.134;2024-03-02T06:40:40;4.20;99.90
23629;DHT22;11991;57.150;-2.134;2024-03-02T06:43:07;4.20;99.90
23629;DHT22;11991;57.150;-2.134;2024-03-02T06:45:35;4.10;99.90
23629;DHT22;11991;57.150;-2.134;2024-03-02T06:48:02;4.10;99.90
23629;DHT22;11991;57.150;-2.134;2024-03-02T06:50:29;4.20;99.90
23629;DHT22;11991;57.150;-2.134;2024-03-02T06:52:57;4.20;99.90
23629;DHT22;11991;57.150;-2.134;2024-03-02T06:55:24;4.30;99.90
23629;DHT22;11991;57.150;-2.134;2024-03-02T06:57:51;4.20;99.90
23629;DHT22;11991;57.150;-2.134;2024-03-02T07:00:19;4.20;99.90
23629;DHT22;11991;57.150;-2.134;2024-03-02T07:02:47;4.20;99.90
23629;DHT22;11991;57.150;-2.134;2024-03-02T07:05:15;4.20;99.90
23629;DHT22;11991;57.150;-2.134;2024-03-02T07:07:42;4.10;99.90
23629;DHT22;11991;57.150;-2.134;2024-03-02T07:10:09;4.10;99.90
23629;DHT22;11991;57.150;-2.134;2024-03-02T07:12:36;4.10;99.90
23629;DHT22;11991;57.150;-2.134;2024-03-02T07:15:04;4.10;99.90
23629;DHT22;11991;57.150;-2.134;2024-03-02T07:17:32;4.10;99.90
23629;DHT22;11991;57.150;-2.134;2024-03-02T07:19:59;4.10;99.90
23629;DHT22;11991;57.150;-2.134;2024-03-02T07:22:26;4.10;99.90
23629;DHT22;11991;57.150;-2.134;2024-03-02T07:24:53;4.10;99.90
23629;DHT22;11991;57.150;-2.134;2024-03-02T07:27:21;4.10;99.90
23629;DHT22;11991;57.150;-2.134;2024-03-02T07:29:48;4.10;99.90
23629;DHT22;11991;57.150;-2.134;2024-03-02T07:32:16;4.10;99.90
23629;DHT22;11991;57.150;-2.134;2024-03-02T07:34:43;4.10;99.90
23629;DHT22;11991;57.150;-2.134;2024-03-02T07:37:10;4.20;99.90
23629;DHT22;11991;57.150;-2.134;2024-03-02T07:39:37;4.20;99.90
23629;DHT22;11991;57.150;-2.134;2024-03-02T07:42:05;4.20;99.90
23629;DHT22;11991;57.150;-2.134;2024-03-02T07:44:33;4.20;99.90
23629;DHT22;11991;57.150;-2.134;2024-03-02T07:47:00;4.20;99.90
23629;DHT22;11991;57.150;-2.134;2024-03-02T07:49:27;4.30;99.90
23629;DHT22;11991;57.150;-2.134;2024-03-02T07:51:55;4.30;99.90
23629;DHT22;11991;57.150;-2.134;2024-03-02T07:54:22;4.30;99.90
23629;DHT22;11991;57.150;-2.134;2024-03-02T07:56:49;4.30;99.90
23629;DHT22;11991;57.150;-2.134;2024-03-02T07:59:17;4.30;99.90
23629;DHT22;11991;57.150;-2.134;2024-03-02T08:01:44;4.30;99.90
23629;DHT22;11991;57.150;-2.134;2024-03-02T08:04:11;4.30;99.90
23629;DHT22;11991;57.150;-2.134;2024-03-02T08:06:39;4.40;99.90
23629;DHT22;11991;57.150;-2.134;2024-03-02T08:09:06;4.40;99.90
23629;DHT22;11991;57.150;-2.134;2024-03-02T08:11:37;4.50;99.90
23629;DHT22;11991;57.150;-2.134;2024-03-02T08:14:04;4.50;99.90
23629;DHT22;11991;57.150;-2.134;2024-03-02T08:16:31;4.60;99.90
23629;DHT22;11991;57.150;-2.134;2024-03-02T08:18:59;4.70;99.90
23629;DHT22;11991;57.150;-2.134;2024-03-02T08:21:27;4.70;99.90
23629;DHT22;11991;57.150;-2.134;2024-03-02T08:23:57;4.80;99.90
23629;DHT22;11991;57.150;-2.134;2024-03-02T08:26:25;4.80;99.90
23629;DHT22;11991;57.150;-2.134;2024-03-02T08:28:56;4.90;99.90
23629;DHT22;11991;57.150;-2.134;2024-03-02T08:31:23;5.00;99.90
23629;DHT22;11991;57.150;-2.134;2024-03-02T08:33:50;5.00;99.90
23629;DHT22;11991;57.150;-2.134;2024-03-02T08:36:17;5.10;99.90
23629;DHT22;11991;57.150;-2.134;2024-03-02T08:38:45;5.10;99.90
23629;DHT22;11991;57.150;-2.134;2024-03-02T08:41:13;5.10;99.90
23629;DHT22;11991;57.150;-2.134;2024-03-02T08:43:41;5.20;99.90
23629;DHT22;11991;57.150;-2.134;2024-03-02T08:46:09;5.10;99.90
23629;DHT22;11991;57.150;-2.134;2024-03-02T08:48:36;5.00;99.90
23629;DHT22;11991;57.150;-2.134;2024-03-02T08:51:04;5.00;99.90
23629;DHT22;11991;57.150;-2.134;2024-03-02T08:53:34;5.00;99.90
23629;DHT22;11991;57.150;-2.134;2024-03-02T08:56:02;5.10;99.90
23629;DHT22;11991;57.150;-2.134;2024-03-02T08:58:32;5.10;99.90
23629;DHT22;11991;57.150;-2.134;2024-03-02T09:00:59;5.00;99.90
23629;DHT22;11991;57.150;-2.134;2024-03-02T09:03:27;5.00;99.90
23629;DHT22;11991;57.150;-2.134;2024-03-02T09:05:54;5.10;99.90
23629;DHT22;11991;57.150;-2.134;2024-03-02T09:08:21;5.00;99.90
23629;DHT22;11991;57.150;-2.134;2024-03-02T09:10:48;5.00;99.90
23629;DHT22;11991;57.150;-2.134;2024-03-02T09:13:16;5.00;99.90
23629;DHT22;11991;57.150;-2.134;2024-03-02T09:15:43;5.00;99.90
23629;DHT22;11991;57.150;-2.134;2024-03-02T09:18:11;5.00;99.90
23629;DHT22;11991;57.150;-2.134;2024-03-02T09:20:39;5.00;99.90
23629;DHT22;11991;57.150;-2.134;2024-03-02T09:23:06;5.00;99.90
23629;DHT22;11991;57.150;-2.134;2024-03-02T09:25:34;5.00;99.90
23629;DHT22;11991;57.150;-2.134;2024-03-02T09:28:01;4.90;99.90
23629;DHT22;11991;57.150;-2.134;2024-03-02T09:30:28;4.90;99.90
23629;DHT22;11991;57.150;-2.134;2024-03-02T09:32:56;4.90;99.90
23629;DHT22;11991;57.150;-2.134;2024-03-02T09:35:43;4.90;99.90
23629;DHT22;11991;57.150;-2.134;2024-03-02T09:38:10;4.90;99.90
23629;DHT22;11991;57.150;-2.134;2024-03-02T09:40:37;5.00;99.90
23629;DHT22;11991;57.150;-2.134;2024-03-02T09:43:04;5.00;99.90
23629;DHT22;11991;57.150;-2.134;2024-03-02T09:45:32;5.10;99.90
23629;DHT22;11991;57.150;-2.134;2024-03-02T09:48:00;5.10;99.90
23629;DHT22;11991;57.150;-2.134;2024-03-02T09:50:27;5.10;99.90
23629;DHT22;11991;57.150;-2.134;2024-03-02T09:52:54;5.10;99.90
23629;DHT22;11991;57.150;-2.134;2024-03-02T09:55:22;5.20;99.90
23629;DHT22;11991;57.150;-2.134;2024-03-02T09:57:49;5.10;99.90
23629;DHT22;11991;57.150;-2.134;2024-03-02T10:00:17;5.10;99.90
23629;DHT22;11991;57.150;-2.134;2024-03-02T10:02:45;5.10;99.90
23629;DHT22;11991;57.150;-2.134;2024-03-02T10:05:26;5.10;99.90
23629;DHT22;11991;57.150;-2.134;2024-03-02T10:08:03;5.10;99.90
23629;DHT22;11991;57.150;-2.134;2024-03-02T10:10:38;5.10;99.90
23629;DHT22;11991;57.150;-2.134;2024-03-02T10:13:11;5.10;99.90
23629;DHT22;11991;57.150;-2.134;2024-03-02T10:15:40;5.10;99.90
23629;DHT22;11991;57.150;-2.134;2024-03-02T10:18:12;5.10;99.90
23629;DHT22;11991;57.150;-2.134;2024-03-02T10:20:40;5.00;99.90
23629;DHT22;11991;57.150;-2.134;2024-03-02T10:23:11;5.10;99.90
23629;DHT22;11991;57.150;-2.134;2024-03-02T10:25:39;5.10;99.90
23629;DHT22;11991;57.150;-2.134;2024-03-02T10:28:20;5.10;99.90
23629;DHT22;11991;57.150;-2.134;2024-03-02T10:30:48;5.10;99.90
23629;DHT22;11991;57.150;-2.134;2024-03-02T10:33:20;5.10;99.90
23629;DHT22;11991;57.150;-2.134;2024-03-02T10:35:49;5.10;99.90
23629;DHT22;11991;57.150;-2.134;2024-03-02T10:38:17;5.10;99.90
23629;DHT22;11991;57.150;-2.134;2024-03-02T10:40:47;5.10;99.90
23629;DHT22;11991;57.150;-2.134;2024-03-02T10:43:16;5.10;99.90
23629;DHT22;11991;57.150;-2.134;2024-03-02T10:45:45;5.10;99.90
23629;DHT22;11991;57.150;-2.134;2024-03-02T10:48:15;5.10;99.90
23629;DHT22;11991;57.150;-2.134;2024-03-02T10:50:42;5.10;99.90
23629;DHT22;11991;57.150;-2.134;2024-03-02T10:53:10;5.00;99.90
23629;DHT22;11991;57.150;-2.134;2024-03-02T10:55:37;5.00;99.90
23629;DHT22;11991;57.150;-2.134;2024-03-02T10:58:06;5.10;99.90
23629;DHT22;11991;57.150;-2.134;2024-03-02T11:00:34;5.10;99.90
23629;DHT22;11991;57.150;-2.134;2024-03-02T11:03:06;5.10;99.90
23629;DHT22;11991;57.150;-2.134;2024-03-02T11:05:38;5.10;99.90
23629;DHT22;11991;57.150;-2.134;2024-03-02T11:08:13;5.00;99.90
23629;DHT22;11991;57.150;-2.134;2024-03-02T11:13:31;5.00;99.90
23629;DHT22;11991;57.150;-2.134;2024-03-02T11:16:06;5.10;99.90
23629;DHT22;11991;57.150;-2.134;2024-03-02T11:18:39;5.10;99.90
23629;DHT22;11991;57.150;-2.134;2024-03-02T11:21:07;5.10;99.90
23629;DHT22;11991;57.150;-2.134;2024-03-02T11:23:37;5.20;99.90
23629;DHT22;11991;57.150;-2.134;2024-03-02T11:26:21;5.20;99.90
23629;DHT22;11991;57.150;-2.134;2024-03-02T11:28:53;5.30;99.90
23629;DHT22;11991;57.150;-2.134;2024-03-02T11:32:00;5.40;99.90
23629;DHT22;11991;57.150;-2.134;2024-03-02T11:34:33;5.50;99.90
23629;DHT22;11991;57.150;-2.134;2024-03-02T11:37:03;5.60;99.90
23629;DHT22;11991;57.150;-2.134;2024-03-02T11:39:32;5.70;99.90
23629;DHT22;11991;57.150;-2.134;2024-03-02T11:42:04;5.70;99.90
23629;DHT22;11991;57.150;-2.134;2024-03-02T11:44:37;5.70;99.90
23629;DHT22;11991;57.150;-2.134;2024-03-02T11:47:12;5.80;99.90
23629;DHT22;11991;57.150;-2.134;2024-03-02T11:49:52;5.80;99.90
23629;DHT22;11991;57.150;-2.134;2024-03-02T11:52:23;5.90;99.90
23629;DHT22;11991;57.150;-2.134;2024-03-02T11:54:54;6.00;99.90
23629;DHT22;11991;57.150;-2.134;2024-03-02T11:57:24;6.10;99.90
23629;DHT22;11991;57.150;-2.134;2024-03-02T11:59:54;6.10;99.90
23629;DHT22;11991;57.150;-2.134;2024-03-02T12:02:24;6.20;99.90
23629;DHT22;11991;57.150;-2.134;2024-03-02T12:04:52;6.20;99.90
23629;DHT22;11991;57.150;-2.134;2024-03-02T12:07:23;6.20;99.90
23629;DHT22;11991;57.150;-2.134;2024-03-02T12:10:01;6.20;99.90
23629;DHT22;11991;57.150;-2.134;2024-03-02T12:12:32;6.20;99.90
23629;DHT22;11991;57.150;-2.134;2024-03-02T12:14:59;6.20;99.90
23629;DHT22;11991;57.150;-2.134;2024-03-02T12:17:29;6.20;99.90
23629;DHT22;11991;57.150;-2.134;2024-03-02T12:19:56;6.20;99.90
23629;DHT22;11991;57.150;-2.134;2024-03-02T12:22:23;6.20;99.90
23629;DHT22;11991;57.150;-2.134;2024-03-02T12:24:50;6.20;99.90
23629;DHT22;11991;57.150;-2.134;2024-03-02T12:27:18;6.20;99.90
23629;DHT22;11991;57.150;-2.134;2024-03-02T12:29:48;6.30;99.90
23629;DHT22;11991;57.150;-2.134;2024-03-02T12:32:16;6.30;99.90
23629;DHT22;11991;57.150;-2.134;2024-03-02T12:34:46;6.30;99.90
23629;DHT22;11991;57.150;-2.134;2024-03-02T12:37:14;6.20;99.90
23629;DHT22;11991;57.150;-2.134;2024-03-02T12:39:45;6.20;99.90
23629;DHT22;11991;57.150;-2.134;2024-03-02T12:42:13;6.20;99.90
23629;DHT22;11991;57.150;-2.134;2024-03-02T12:44:40;6.20;99.90
23629;DHT22;11991;57.150;-2.134;2024-03-02T12:47:08;6.10;99.90
23629;DHT22;11991;57.150;-2.134;2024-03-02T12:49:36;6.10;99.90
23629;DHT22;11991;57.150;-2.134;2024-03-02T12:52:03;6.10;99.90
23629;DHT22;11991;57.150;-2.134;2024-03-02T12:54:31;6.10;99.90
23629;DHT22;11991;57.150;-2.134;2024-03-02T12:56:59;6.10;99.90
23629;DHT22;11991;57.150;-2.134;2024-03-02T12:59:26;6.20;99.90
23629;DHT22;11991;57.150;-2.134;2024-03-02T13:01:55;6.30;99.90
23629;DHT22;11991;57.150;-2.134;2024-03-02T13:04:27;6.40;99.90
23629;DHT22;11991;57.150;-2.134;2024-03-02T13:06:56;6.60;99.90
23629;DHT22;11991;57.150;-2.134;2024-03-02T13:09:25;6.70;99.90
23629;DHT22;11991;57.150;-2.134;2024-03-02T13:11:53;6.70;99.90
23629;DHT22;11991;57.150;-2.134;2024-03-02T13:14:22;6.70;99.90
23629;DHT22;11991;57.150;-2.134;2024-03-02T13:16:51;6.80;99.90
23629;DHT22;11991;57.150;-2.134;2024-03-02T13:19:19;6.80;99.90
23629;DHT22;11991;57.150;-2.134;2024-03-02T13:21:47;6.80;99.90
23629;DHT22;11991;57.150;-2.134;2024-03-02T13:24:14;6.80;99.90
23629;DHT22;11991;57.150;-2.134;2024-03-02T13:26:41;6.80;99.90
23629;DHT22;11991;57.150;-2.134;2024-03-02T13:29:08;6.90;99.90
23629;DHT22;11991;57.150;-2.134;2024-03-02T13:31:35;6.90;99.90
23629;DHT22;11991;57.150;-2.134;2024-03-02T13:34:03;7.00;99.90
23629;DHT22;11991;57.150;-2.134;2024-03-02T13:36:30;7.00;99.90
23629;DHT22;11991;57.150;-2.134;2024-03-02T13:38:57;7.10;99.90
23629;DHT22;11991;57.150;-2.134;2024-03-02T13:41:25;7.10;99.90
23629;DHT22;11991;57.150;-2.134;2024-03-02T13:43:52;7.20;99.90
23629;DHT22;11991;57.150;-2.134;2024-03-02T13:46:20;7.20;99.90
23629;DHT22;11991;57.150;-2.134;2024-03-02T13:48:48;7.20;99.90
23629;DHT22;11991;57.150;-2.134;2024-03-02T13:51:16;7.30;99.90
23629;DHT22;11991;57.150;-2.134;2024-03-02T13:53:43;7.40;99.90
23629;DHT22;11991;57.150;-2.134;2024-03-02T13:56:10;7.40;99.90
23629;DHT22;11991;57.150;-2.134;2024-03-02T13:58:37;7.40;99.90
23629;DHT22;11991;57.150;-2.134;2024-03-02T14:01:05;7.40;99.90
23629;DHT22;11991;57.150;-2.134;2024-03-02T14:03:32;7.40;99.90
23629;DHT22;11991;57.150;-2.134;2024-03-02T14:06:00;7.40;99.90
23629;DHT22;11991;57.150;-2.134;2024-03-02T14:08:27;7.40;99.90
23629;DHT22;11991;57.150;-2.134;2024-03-02T14:10:54;7.40;99.90
23629;DHT22;11991;57.150;-2.134;2024-03-02T14:13:24;7.50;99.90
23629;DHT22;11991;57.150;-2.134;2024-03-02T14:15:53;7.50;99.90
23629;DHT22;11991;57.150;-2.134;2024-03-02T14:18:21;7.60;99.90
23629;DHT22;11991;57.150;-2.134;2024-03-02T14:20:48;7.60;99.90
23629;DHT22;11991;57.150;-2.134;2024-03-02T14:23:19;7.60;99.90
23629;DHT22;11991;57.150;-2.134;2024-03-02T14:25:47;7.60;99.90
23629;DHT22;11991;57.150;-2.134;2024-03-02T14:28:15;7.60;99.90
23629;DHT22;11991;57.150;-2.134;2024-03-02T14:31:03;7.70;99.90
23629;DHT22;11991;57.150;-2.134;2024-03-02T14:33:30;7.70;99.90
23629;DHT22;11991;57.150;-2.134;2024-03-02T14:35:58;7.70;99.90
23629;DHT22;11991;57.150;-2.134;2024-03-02T14:38:26;7.70;99.90
23629;DHT22;11991;57.150;-2.134;2024-03-02T14:40:53;7.70;99.90
23629;DHT22;11991;57.150;-2.134;2024-03-02T14:43:20;7.70;99.90
23629;DHT22;11991;57.150;-2.134;2024-03-02T14:45:48;7.70;99.90
23629;DHT22;11991;57.150;-2.134;2024-03-02T14:48:15;7.60;99.90
23629;DHT22;11991;57.150;-2.134;2024-03-02T14:50:43;7.50;99.90
23629;DHT22;11991;57.150;-2.134;2024-03-02T14:53:10;7.50;99.90
23629;DHT22;11991;57.150;-2.134;2024-03-02T14:55:37;7.40;99.90
23629;DHT22;11991;57.150;-2.134;2024-03-02T14:58:05;7.40;99.90
23629;DHT22;11991;57.150;-2.134;2024-03-02T15:00:32;7.40;99.90
23629;DHT22;11991;57.150;-2.134;2024-03-02T15:02:59;7.40;99.90
23629;DHT22;11991;57.150;-2.134;2024-03-02T15:05:26;7.40;99.90
23629;DHT22;11991;57.150;-2.134;2024-03-02T15:07:54;7.40;99.90
23629;DHT22;11991;57.150;-2.134;2024-03-02T15:10:21;7.40;99.90
23629;DHT22;11991;57.150;-2.134;2024-03-02T15:12:48;7.40;99.90
23629;DHT22;11991;57.150;-2.134;2024-03-02T15:15:15;7.40;99.90
23629;DHT22;11991;57.150;-2.134;2024-03-02T15:17:43;7.40;99.90
23629;DHT22;11991;57.150;-2.134;2024-03-02T15:20:11;7.40;99.90
23629;DHT22;11991;57.150;-2.134;2024-03-02T15:22:38;7.40;99.90
23629;DHT22;11991;57.150;-2.134;2024-03-02T15:25:05;7.40;99.90
23629;DHT22;11991;57.150;-2.134;2024-03-02T15:27:33;7.40;99.90
23629;DHT22;11991;57.150;-2.134;2024-03-02T15:30:00;7.40;99.90
23629;DHT22;11991;57.150;-2.134;2024-03-02T15:32:27;7.40;99.90
23629;DHT22;11991;57.150;-2.134;2024-03-02T15:34:54;7.40;99.90
23629;DHT22;11991;57.150;-2.134;2024-03-02T15:37:22;7.40;99.90
23629;DHT22;11991;57.150;-2.134;2024-03-02T15:39:49;7.40;99.90
23629;DHT22;11991;57.150;-2.134;2024-03-02T15:42:16;7.40;99.90
23629;DHT22;11991;57.150;-2.134;2024-03-02T15:44:44;7.40;99.90